createdAt,value
2022-11-30T00:07:12.086Z,1.95
2022-11-30T00:17:12.098Z,1.95
2022-11-30T00:27:12.084Z,1.97
2022-11-30T00:37:12.144Z,1.98
2022-11-30T00:47:12.079Z,1.91
2022-11-30T00:57:12.135Z,1.84
2022-11-30T01:07:12.114Z,1.81
2022-11-30T01:17:12.131Z,1.8
2022-11-30T01:27:12.091Z,1.74
2022-11-30T01:37:12.153Z,1.62
2022-11-30T01:47:12.108Z,1.5
2022-11-30T01:57:12.142Z,1.49
2022-11-30T02:07:12.152Z,1.53
2022-11-30T02:17:12.157Z,1.58
2022-11-30T02:27:12.132Z,1.64
2022-11-30T02:37:12.248Z,1.6
2022-11-30T02:47:12.140Z,1.52
2022-11-30T02:57:12.194Z,1.44
2022-11-30T03:07:12.143Z,1.46
2022-11-30T03:17:12.154Z,1.49
2022-11-30T03:27:12.139Z,1.47
2022-11-30T03:37:13.205Z,1.46
2022-11-30T03:47:12.175Z,1.53
2022-11-30T03:57:12.202Z,1.63
2022-11-30T04:07:12.158Z,1.64
2022-11-30T04:17:12.195Z,1.7
2022-11-30T04:27:12.179Z,1.64
2022-11-30T04:37:12.176Z,1.63
2022-11-30T04:47:12.166Z,1.62
2022-11-30T04:57:12.199Z,1.67
2022-11-30T05:07:12.256Z,1.71
2022-11-30T05:17:12.209Z,1.76
2022-11-30T05:27:15.409Z,1.81
2022-11-30T05:37:12.225Z,1.84
2022-11-30T05:47:12.255Z,1.86
2022-11-30T05:57:12.214Z,1.86
2022-11-30T06:07:12.234Z,1.89
2022-11-30T06:17:12.237Z,1.95
2022-11-30T06:27:12.205Z,1.97
2022-11-30T06:37:12.246Z,1.95
2022-11-30T06:47:12.191Z,1.94
2022-11-30T06:57:12.241Z,1.94
2022-11-30T07:07:12.224Z,1.99
2022-11-30T07:17:12.268Z,2.05
2022-11-30T07:27:12.234Z,2.07
2022-11-30T07:37:12.422Z,2.11
2022-11-30T07:47:12.241Z,2.15
2022-11-30T07:57:12.269Z,2.16
2022-11-30T08:07:12.260Z,2.22
2022-11-30T08:17:12.273Z,2.28
2022-11-30T08:27:12.250Z,2.3
2022-11-30T08:37:12.285Z,2.32
2022-11-30T08:47:12.328Z,2.36
2022-11-30T08:57:12.280Z,2.39
2022-11-30T09:07:12.286Z,2.42
2022-11-30T09:17:12.320Z,2.48
2022-11-30T09:27:12.298Z,2.54
2022-11-30T09:37:12.337Z,2.6
2022-11-30T09:47:12.292Z,2.61
2022-11-30T09:57:12.301Z,2.74
2022-11-30T10:07:12.290Z,2.81
2022-11-30T10:17:12.320Z,2.84
2022-11-30T10:27:12.261Z,2.88
2022-11-30T10:37:12.308Z,2.85
2022-11-30T10:47:12.289Z,2.87
2022-11-30T10:57:12.331Z,2.91
2022-11-30T11:07:12.382Z,2.89
2022-11-30T11:17:12.339Z,2.86
2022-11-30T11:27:12.301Z,2.83
2022-11-30T11:37:12.348Z,2.79
2022-11-30T11:47:12.313Z,2.78
2022-11-30T11:57:12.331Z,2.84
2022-11-30T12:07:13.799Z,2.88
2022-11-30T12:17:12.353Z,2.94
2022-11-30T12:27:12.364Z,3.03
2022-11-30T12:37:12.361Z,3.1
2022-11-30T12:47:12.320Z,3.05
2022-11-30T12:57:12.455Z,3.01
2022-11-30T13:07:12.338Z,3
2022-11-30T13:17:12.356Z,2.94
2022-11-30T13:27:12.344Z,2.94
2022-11-30T13:37:12.372Z,2.87
2022-11-30T13:47:12.359Z,2.77
2022-11-30T13:57:12.367Z,2.75
2022-11-30T14:07:12.335Z,2.69
2022-11-30T14:17:12.380Z,2.62
2022-11-30T14:27:12.345Z,2.54
2022-11-30T14:37:12.405Z,2.53
2022-11-30T14:47:12.397Z,2.49
2022-11-30T14:57:12.569Z,2.48
2022-11-30T15:07:12.374Z,2.38
2022-11-30T15:17:12.400Z,2.33
2022-11-30T15:27:12.357Z,2.29
2022-11-30T15:37:12.432Z,2.27
2022-11-30T15:47:12.671Z,2.21
2022-11-30T15:57:12.420Z,2.17
2022-11-30T16:07:12.365Z,2.13
2022-11-30T16:17:12.469Z,2.1
2022-11-30T16:27:12.399Z,2.09
2022-11-30T16:37:12.507Z,2.1
2022-11-30T16:47:12.394Z,2.06
2022-11-30T16:57:12.426Z,2.02
2022-11-30T17:07:12.392Z,1.98
2022-11-30T17:17:12.484Z,1.95
2022-11-30T17:27:12.400Z,1.9
2022-11-30T17:37:12.421Z,1.87
2022-11-30T17:47:12.402Z,1.79
2022-11-30T17:57:12.467Z,1.75
2022-11-30T18:07:12.418Z,1.72
2022-11-30T18:17:12.455Z,1.7
2022-11-30T18:27:12.424Z,1.71
2022-11-30T18:37:12.465Z,1.72
2022-11-30T18:47:12.443Z,1.67
2022-11-30T18:57:12.457Z,1.67
2022-11-30T19:07:12.446Z,1.68
2022-11-30T19:17:12.493Z,1.66
2022-11-30T19:27:12.437Z,1.59
2022-11-30T19:37:12.460Z,1.63
2022-11-30T19:47:12.454Z,1.62
2022-11-30T19:57:17.572Z,1.62
2022-11-30T20:07:12.775Z,1.62
2022-11-30T20:17:12.475Z,1.68
2022-11-30T20:27:12.472Z,1.72
2022-11-30T20:37:12.505Z,1.76
2022-11-30T20:47:12.471Z,1.81
2022-11-30T20:57:12.526Z,1.87
2022-11-30T21:07:12.474Z,1.89
2022-11-30T21:17:12.521Z,1.93
2022-11-30T21:27:12.484Z,1.99
2022-11-30T21:37:12.515Z,2.03
2022-11-30T21:47:12.501Z,2.06
2022-11-30T21:57:12.538Z,2.07
2022-11-30T22:07:12.509Z,2.04
2022-11-30T22:17:12.578Z,2.04
2022-11-30T22:27:12.508Z,2.02
2022-11-30T22:37:12.550Z,2.05
2022-11-30T22:47:12.618Z,2.08
2022-11-30T22:57:12.601Z,2.04
2022-11-30T23:07:12.523Z,2.06
2022-11-30T23:17:12.559Z,2.04
2022-11-30T23:27:12.523Z,2.06
2022-11-30T23:37:12.600Z,2.07
2022-11-30T23:47:16.870Z,2.06
2022-11-30T23:57:12.585Z,2.05
